Time;durP1;ratioP1;P1;durP2;ratioP2;P2;SDS_P1;SDS_P2;PMS_P1;PMS_P2;Temp;Humidity;BMP_temperature;BMP_pressure;BME280_temperature;BME280_humidity;BME280_pressure;Samples;Min_cycle;Max_cycle;Signal;HPM_P1;HPM_P2
2022/03/27 00:00:51;;;;;;;6.93;4.73;;;3.50;99.90;;;;;;8419445;28;20309;-61
2022/03/27 00:04:51;;;;;;;7.10;5.20;;;3.30;99.90;;;;;;8446527;28;20206;-60
2022/03/27 00:08:52;;;;;;;7.97;5.20;;;3.20;99.90;;;;;;8406238;28;20219;-63
2022/03/27 00:12:53;;;;;;;7.97;4.93;;;3.10;99.90;;;;;;8399439;28;20208;-61
2022/03/27 00:16:54;;;;;;;8.40;5.23;;;3.00;99.90;;;;;;8435902;28;20207;-61
2022/03/27 00:20:55;;;;;;;8.80;6.03;;;2.90;99.90;;;;;;8403510;28;20204;-60
2022/03/27 00:24:57;;;;;;;7.10;5.17;;;2.90;99.90;;;;;;8446198;28;20298;-62
2022/03/27 00:28:58;;;;;;;7.73;5.20;;;2.80;99.90;;;;;;8403821;28;20249;-61
2022/03/27 00:32:58;;;;;;;7.43;4.60;;;2.70;99.90;;;;;;8426048;28;20207;-61
2022/03/27 00:36:59;;;;;;;5.80;4.60;;;2.60;99.90;;;;;;8415090;28;20208;-66
2022/03/27 00:41:01;;;;;;;7.50;4.87;;;2.50;99.90;;;;;;8426864;28;20204;-60
2022/03/27 00:45:02;;;;;;;8.77;4.53;;;2.40;99.90;;;;;;8433040;28;20238;-61
2022/03/27 00:49:03;;;;;;;8.73;5.77;;;2.40;99.90;;;;;;8411377;28;20231;-61
2022/03/27 00:53:04;;;;;;;6.97;4.83;;;2.30;99.90;;;;;;8429418;28;20242;-60
2022/03/27 00:57:05;;;;;;;8.93;5.97;;;2.20;99.90;;;;;;8435198;28;20208;-61
2022/03/27 01:01:18;;;;;;;8.40;5.23;;;2.20;99.90;;;;;;8404963;28;20226;-61
2022/03/27 01:05:18;;;;;;;9.70;5.43;;;2.20;99.90;;;;;;8405043;28;20203;-60
2022/03/27 01:09:38;;;;;;;9.83;5.53;;;2.20;99.90;;;;;;8440488;28;20219;-63
2022/03/27 01:13:55;;;;;;;8.87;5.47;;;2.20;99.90;;;;;;8442121;28;20212;-61
2022/03/27 01:17:56;;;;;;;10.60;6.40;;;2.20;99.90;;;;;;8434226;28;20220;-62
2022/03/27 01:21:57;;;;;;;11.27;6.07;;;2.20;99.90;;;;;;8428223;28;20199;-62
2022/03/27 01:25:58;;;;;;;7.93;5.23;;;2.20;99.90;;;;;;8401993;28;20224;-62
2022/03/27 01:29:59;;;;;;;7.50;5.03;;;2.20;99.90;;;;;;8422774;28;20227;-63
2022/03/27 01:34:00;;;;;;;9.63;5.63;;;2.20;99.90;;;;;;8414852;28;20207;-61
2022/03/27 01:38:02;;;;;;;10.27;6.77;;;2.20;99.90;;;;;;8418250;28;20204;-61
2022/03/27 01:42:05;;;;;;;7.77;5.90;;;2.10;99.90;;;;;;8436848;28;20401;-61
2022/03/27 01:46:06;;;;;;;8.70;6.20;;;2.10;99.90;;;;;;8424851;28;20250;-62
2022/03/27 01:50:08;;;;;;;8.43;5.23;;;2.00;99.90;;;;;;8420118;28;20239;-62
2022/03/27 01:54:10;;;;;;;8.77;5.40;;;2.00;99.90;;;;;;8405242;28;20208;-64
2022/03/27 01:58:10;;;;;;;9.30;6.33;;;2.00;99.90;;;;;;8432041;28;20275;-60
2022/03/27 02:02:11;;;;;;;9.63;6.07;;;2.00;99.90;;;;;;8397097;28;20330;-62
2022/03/27 02:06:13;;;;;;;10.03;6.57;;;2.00;99.90;;;;;;8407293;28;20228;-62
2022/03/27 02:10:13;;;;;;;10.90;6.70;;;2.10;99.90;;;;;;8411288;28;20214;-63
2022/03/27 02:14:14;;;;;;;10.20;6.07;;;2.20;99.90;;;;;;8427122;28;20220;-61
2022/03/27 02:18:16;;;;;;;9.60;5.83;;;2.20;99.90;;;;;;8419130;28;20208;-61
2022/03/27 02:22:17;;;;;;;10.67;6.60;;;2.20;99.90;;;;;;8408297;28;20204;-61
2022/03/27 02:26:18;;;;;;;10.00;6.67;;;2.20;99.90;;;;;;8414079;28;20226;-61
2022/03/27 02:30:20;;;;;;;11.20;6.30;;;2.20;99.90;;;;;;8431369;28;20211;-63
2022/03/27 02:34:20;;;;;;;12.47;6.53;;;2.20;99.90;;;;;;8423871;28;20220;-61
2022/03/27 02:38:21;;;;;;;11.97;7.73;;;2.20;99.90;;;;;;8420620;28;20231;-63
2022/03/27 02:42:22;;;;;;;13.87;8.73;;;2.10;99.90;;;;;;8425020;28;20208;-60
2022/03/27 02:46:23;;;;;;;18.47;11.07;;;2.20;99.90;;;;;;8430618;28;20204;-62
2022/03/27 02:50:26;;;;;;;18.10;11.33;;;2.10;99.90;;;;;;8425517;28;20244;-62
2022/03/27 02:54:27;;;;;;;14.47;9.17;;;2.00;99.90;;;;;;8408174;28;20299;-61
2022/03/27 02:58:28;;;;;;;11.53;7.20;;;1.90;99.90;;;;;;8415250;28;20207;-61
2022/03/27 03:02:29;;;;;;;18.37;10.40;;;1.70;99.90;;;;;;8415306;28;20215;-61
2022/03/27 03:06:32;;;;;;;15.27;8.90;;;1.50;99.90;;;;;;8438764;28;20219;-63
2022/03/27 03:10:33;;;;;;;13.30;7.87;;;1.30;99.90;;;;;;8452096;28;20213;-61
2022/03/27 03:14:34;;;;;;;12.17;8.53;;;1.20;99.90;;;;;;8438804;28;20299;-61
2022/03/27 03:18:35;;;;;;;14.37;8.47;;;1.00;99.90;;;;;;8421499;28;20208;-61
2022/03/27 03:22:37;;;;;;;17.47;9.47;;;1.00;99.90;;;;;;8411566;28;20211;-61
2022/03/27 03:26:38;;;;;;;16.63;9.83;;;0.90;99.90;;;;;;8419197;28;20230;-60
2022/03/27 03:30:39;;;;;;;16.73;10.30;;;0.80;99.90;;;;;;8425923;28;20217;-61
2022/03/27 03:34:39;;;;;;;19.47;10.87;;;0.70;99.90;;;;;;8421182;28;20222;-60
2022/03/27 03:38:40;;;;;;;18.97;10.20;;;0.60;99.90;;;;;;8442004;28;20401;-60
2022/03/27 03:42:41;;;;;;;17.20;9.83;;;0.60;99.90;;;;;;8425141;28;20213;-61
2022/03/27 03:46:43;;;;;;;15.03;8.37;;;0.50;99.90;;;;;;8420988;28;20214;-62
2022/03/27 03:50:44;;;;;;;12.13;6.87;;;0.30;99.90;;;;;;8420963;28;20208;-63
2022/03/27 03:54:44;;;;;;;10.10;6.80;;;0.20;99.90;;;;;;8441647;28;20208;-62
2022/03/27 03:58:45;;;;;;;12.50;7.07;;;0.20;99.90;;;;;;8405603;28;20206;-60
2022/03/27 04:02:46;;;;;;;7.57;5.83;;;0.10;99.90;;;;;;8446738;28;20423;-60
2022/03/27 04:06:47;;;;;;;15.70;7.97;;;0.10;99.90;;;;;;8418147;28;20618;-60
2022/03/27 04:10:48;;;;;;;12.43;7.53;;;0.10;99.90;;;;;;8433047;28;20265;-61
2022/03/27 04:14:49;;;;;;;11.97;6.97;;;0.00;99.90;;;;;;8437952;28;20205;-63
2022/03/27 04:18:49;;;;;;;9.47;6.20;;;-0.20;99.90;;;;;;8436781;28;20564;-60
2022/03/27 04:22:50;;;;;;;11.37;6.23;;;-0.30;99.90;;;;;;8407002;28;20269;-60
2022/03/27 04:26:51;;;;;;;11.27;6.23;;;-0.40;99.90;;;;;;8406620;28;20226;-63
2022/03/27 04:30:52;;;;;;;8.97;4.97;;;-0.60;99.90;;;;;;8424821;28;20212;-60
2022/03/27 04:34:53;;;;;;;7.73;4.80;;;-0.60;99.90;;;;;;8424585;28;20208;-60
2022/03/27 04:38:54;;;;;;;8.60;5.37;;;-0.60;99.90;;;;;;8418555;28;20201;-60
2022/03/27 04:42:55;;;;;;;10.67;6.10;;;-0.70;99.90;;;;;;8421692;28;20205;-61
2022/03/27 04:46:55;;;;;;;12.40;8.10;;;-0.70;99.90;;;;;;8425872;28;20278;-63
2022/03/27 04:50:56;;;;;;;15.17;8.83;;;-0.70;99.90;;;;;;8420402;28;20207;-60
2022/03/27 04:54:57;;;;;;;13.10;7.00;;;-0.70;99.90;;;;;;8420933;28;20213;-60
2022/03/27 04:58:58;;;;;;;12.37;7.23;;;-0.80;99.90;;;;;;8429060;28;20220;-61
2022/03/27 05:02:59;;;;;;;13.67;7.67;;;-0.80;99.90;;;;;;8396776;28;20196;-60
2022/03/27 05:06:59;;;;;;;10.70;6.93;;;-0.80;99.90;;;;;;8405522;28;20220;-61
2022/03/27 05:11:00;;;;;;;12.10;7.13;;;-0.90;99.90;;;;;;8396483;28;20199;-62
2022/03/27 05:15:02;;;;;;;11.10;6.47;;;-0.90;99.90;;;;;;8411280;28;20214;-60
2022/03/27 05:19:04;;;;;;;22.67;10.30;;;-0.80;99.90;;;;;;8423906;28;20215;-62
2022/03/27 05:23:05;;;;;;;20.50;8.47;;;-0.80;99.90;;;;;;8425380;28;20210;-63
2022/03/27 05:27:06;;;;;;;18.63;8.73;;;-0.70;99.90;;;;;;8429183;28;20285;-61
2022/03/27 05:31:09;;;;;;;15.77;8.10;;;-0.50;99.90;;;;;;8430391;28;20257;-60
2022/03/27 05:35:10;;;;;;;19.00;8.83;;;-0.40;99.90;;;;;;8410304;28;20283;-69
2022/03/27 05:39:10;;;;;;;18.07;8.80;;;-0.30;99.90;;;;;;8406375;28;20440;-60
2022/03/27 05:43:11;;;;;;;18.27;9.27;;;-0.20;99.90;;;;;;8421902;28;20209;-63
2022/03/27 05:47:13;;;;;;;32.37;12.80;;;-0.10;99.90;;;;;;8424280;28;20212;-63
2022/03/27 05:51:14;;;;;;;26.67;13.03;;;0.10;99.90;;;;;;8421447;28;20197;-61
2022/03/27 05:55:15;;;;;;;25.20;12.10;;;0.40;99.90;;;;;;8434628;28;20294;-62
2022/03/27 05:59:16;;;;;;;22.47;12.23;;;0.60;99.90;;;;;;8412378;28;20252;-60
2022/03/27 06:03:17;;;;;;;31.33;19.50;;;0.60;99.90;;;;;;8398062;28;20209;-61
2022/03/27 06:07:18;;;;;;;36.67;23.37;;;0.80;99.90;;;;;;8423881;28;20260;-60
2022/03/27 06:11:19;;;;;;;35.47;20.47;;;1.10;99.90;;;;;;8415055;28;20199;-61
2022/03/27 06:15:21;;;;;;;39.80;22.77;;;1.40;99.90;;;;;;8430717;28;20207;-60
2022/03/27 06:19:22;;;;;;;39.40;21.73;;;1.60;99.90;;;;;;8432439;28;20203;-61
2022/03/27 06:23:23;;;;;;;30.70;18.00;;;1.80;99.90;;;;;;8403775;28;20211;-63
2022/03/27 06:27:24;;;;;;;23.93;15.90;;;2.00;99.90;;;;;;8430875;28;20227;-63
2022/03/27 06:31:24;;;;;;;23.87;13.50;;;2.30;99.90;;;;;;8427909;28;20253;-61
2022/03/27 06:35:25;;;;;;;25.60;14.70;;;2.70;99.90;;;;;;8421917;28;20292;-62
2022/03/27 06:39:26;;;;;;;24.77;14.43;;;3.20;99.90;;;;;;8408951;28;20279;-61
2022/03/27 06:43:27;;;;;;;23.70;13.50;;;3.60;99.90;;;;;;8428464;28;20302;-60
2022/03/27 06:47:29;;;;;;;23.13;13.07;;;4.00;99.90;;;;;;8425457;28;20244;-61
2022/03/27 06:51:30;;;;;;;33.17;18.10;;;4.30;99.90;;;;;;8441262;28;20203;-61
2022/03/27 06:55:32;;;;;;;27.60;15.33;;;4.60;99.90;;;;;;8411344;28;20237;-61
2022/03/27 07:03:01;;;;;;;26.27;16.00;;;4.90;99.90;;;;;;8411826;28;20206;-64
2022/03/27 07:03:53;;;;;;;25.77;14.80;;;5.20;99.90;;;;;;8419779;28;20203;-61
2022/03/27 07:07:54;;;;;;;30.80;17.90;;;5.50;99.90;;;;;;8439288;28;20223;-63
2022/03/27 07:11:55;;;;;;;25.33;16.30;;;5.70;99.90;;;;;;8452809;28;20194;-61
2022/03/27 07:15:56;;;;;;;24.87;15.47;;;6.00;99.90;;;;;;8427401;28;20281;-62
2022/03/27 07:19:56;;;;;;;24.77;16.37;;;6.30;99.90;;;;;;8431578;28;20219;-62
2022/03/27 07:23:58;;;;;;;24.53;17.27;;;6.50;99.90;;;;;;8441313;28;20195;-60
2022/03/27 07:28:02;;;;;;;23.90;16.53;;;6.80;99.90;;;;;;8429948;28;20295;-61
2022/03/27 07:32:03;;;;;;;24.90;16.80;;;7.00;1.00;;;;;;8408143;28;20196;-62
2022/03/27 07:36:04;;;;;;;26.47;16.87;;;7.30;1.00;;;;;;8434569;28;20197;-61
2022/03/27 07:40:08;;;;;;;27.30;17.33;;;7.60;1.00;;;;;;8430893;28;20199;-62
2022/03/27 07:44:09;;;;;;;25.80;17.27;;;7.80;99.90;;;;;;8414732;28;20247;-64
2022/03/27 07:48:09;;;;;;;23.23;16.30;;;8.00;99.90;;;;;;8414404;28;20262;-63
2022/03/27 07:52:10;;;;;;;25.47;15.77;;;8.20;63.40;;;;;;8439429;28;20283;-61
2022/03/27 07:56:11;;;;;;;21.47;15.07;;;8.40;99.90;;;;;;8433516;28;20192;-61
2022/03/27 08:00:15;;;;;;;22.67;14.43;;;8.60;1.00;;;;;;8424819;28;20257;-61
2022/03/27 08:04:15;;;;;;;20.20;15.07;;;8.80;1.00;;;;;;8417515;28;20284;-62
2022/03/27 08:08:17;;;;;;;22.57;15.40;;;9.00;99.90;;;;;;8434061;28;20231;-61
2022/03/27 08:12:20;;;;;;;23.77;14.47;;;9.20;70.60;;;;;;8400371;28;20291;-61
2022/03/27 08:16:21;;;;;;;19.23;13.50;;;9.40;1.00;;;;;;8423922;28;20219;-61
2022/03/27 08:20:24;;;;;;;19.23;13.40;;;9.50;99.90;;;;;;8417209;28;20237;-61
2022/03/27 08:24:25;;;;;;;18.63;13.20;;;9.70;61.60;;;;;;8431459;28;20207;-61
2022/03/27 08:28:26;;;;;;;20.80;14.47;;;9.80;99.90;;;;;;8408972;28;20212;-61
2022/03/27 08:32:26;;;;;;;20.17;13.67;;;10.00;7.70;;;;;;8440538;28;20214;-60
2022/03/27 08:36:28;;;;;;;19.77;12.33;;;10.20;1.00;;;;;;8425331;28;20208;-62
2022/03/27 08:40:29;;;;;;;21.57;13.13;;;10.30;99.90;;;;;;8420903;28;20244;-64
2022/03/27 08:44:31;;;;;;;16.20;12.20;;;10.40;1.00;;;;;;8439087;28;20211;-61
2022/03/27 08:48:35;;;;;;;16.37;12.00;;;10.60;21.90;;;;;;8410483;28;20230;-61
2022/03/27 08:52:49;;;;;;;15.03;11.33;;;10.70;99.90;;;;;;8443815;28;20217;-63
2022/03/27 08:57:24;;;;;;;19.33;12.93;;;11.00;1.00;;;;;;8427816;28;20206;-63
2022/03/27 09:01:25;;;;;;;15.90;11.80;;;11.10;1.00;;;;;;8417280;28;20337;-61
2022/03/27 09:05:27;;;;;;;14.70;9.70;;;11.30;99.90;;;;;;8407018;28;20217;-61
2022/03/27 09:09:33;;;;;;;11.07;7.70;;;11.40;94.00;;;;;;8421987;28;20329;-61
2022/03/27 09:13:34;;;;;;;15.43;11.00;;;11.60;99.90;;;;;;8443723;28;20250;-63
2022/03/27 09:18:13;;;;;;;11.60;9.20;;;11.70;1.00;;;;;;8416801;28;20215;-61
2022/03/27 09:22:29;;;;;;;11.03;8.87;;;11.90;1.00;;;;;;8429558;28;20212;-64
2022/03/27 09:26:32;;;;;;;14.80;10.23;;;12.10;99.90;;;;;;8402550;28;20315;-61
2022/03/27 09:30:36;;;;;;;11.87;9.30;;;12.20;99.90;;;;;;8432229;28;20234;-60
2022/03/27 09:35:08;;;;;;;11.50;8.77;;;12.30;99.90;;;;;;8403570;28;20504;-61
2022/03/27 09:39:17;;;;;;;10.63;8.37;;;12.40;99.90;;;;;;8420508;28;20204;-63
2022/03/27 09:43:21;;;;;;;13.07;8.40;;;12.60;99.90;;;;;;8410691;28;20212;-60
2022/03/27 09:47:24;;;;;;;12.60;8.20;;;12.80;33.60;;;;;;8402500;28;20227;-60
2022/03/27 09:51:25;;;;;;;9.83;8.07;;;12.80;1.00;;;;;;8424722;28;20199;-61
2022/03/27 09:55:26;;;;;;;9.40;7.17;;;12.90;1.00;;;;;;8414538;28;20212;-62
2022/03/27 09:59:33;;;;;;;7.17;6.07;;;13.10;1.00;;;;;;8425113;28;20224;-64
2022/03/27 10:03:34;;;;;;;9.57;6.90;;;13.10;99.90;;;;;;8410680;28;20268;-62
2022/03/27 10:07:56;;;;;;;10.33;7.70;;;13.20;99.90;;;;;;8421031;28;20562;-62
2022/03/27 10:11:57;;;;;;;12.97;6.47;;;13.30;99.90;;;;;;8395877;28;20233;-61
2022/03/27 10:15:59;;;;;;;9.20;7.20;;;13.30;99.90;;;;;;8418925;28;20232;-61
2022/03/27 10:20:05;;;;;;;10.97;7.30;;;13.50;99.90;;;;;;8409953;28;20227;-63
2022/03/27 10:24:18;;;;;;;10.27;8.37;;;13.60;99.90;;;;;;8431995;28;20207;-61
2022/03/27 10:28:20;;;;;;;10.67;7.43;;;13.60;99.90;;;;;;8426682;28;20236;-61
2022/03/27 10:32:21;;;;;;;11.27;7.90;;;13.70;99.90;;;;;;8407460;28;20216;-62
2022/03/27 10:36:31;;;;;;;11.30;7.97;;;13.90;99.90;;;;;;8431462;28;20259;-62
2022/03/27 10:40:40;;;;;;;11.63;7.50;;;13.60;99.90;;;;;;8400590;28;20217;-63
2022/03/27 10:44:56;;;;;;;10.77;8.00;;;13.60;99.90;;;;;;8417205;28;20220;-61
2022/03/27 10:49:13;;;;;;;11.30;7.97;;;13.70;99.90;;;;;;8422286;28;20232;-63
2022/03/27 10:53:15;;;;;;;10.13;8.13;;;13.70;99.90;;;;;;8438073;28;20211;-61
2022/03/27 10:57:37;;;;;;;10.33;7.67;;;13.90;99.90;;;;;;8424698;28;20265;-61
2022/03/27 11:01:42;;;;;;;10.93;7.83;;;13.80;99.90;;;;;;8422169;28;20239;-62
2022/03/27 11:05:58;;;;;;;10.37;7.37;;;13.90;99.90;;;;;;8421593;28;20216;-60
2022/03/27 11:09:59;;;;;;;8.43;7.07;;;14.10;99.90;;;;;;8431462;28;20208;-60
2022/03/27 11:14:01;;;;;;;10.47;7.73;;;14.20;99.90;;;;;;8443890;28;20208;-61
2022/03/27 11:18:12;;;;;;;9.70;7.43;;;14.10;99.90;;;;;;8443466;28;20208;-62
2022/03/27 11:22:44;;;;;;;8.47;6.73;;;13.70;97.40;;;;;;8426440;28;20202;-61
2022/03/27 11:26:44;;;;;;;8.13;5.93;;;13.60;99.90;;;;;;8444964;28;20224;-63
2022/03/27 11:30:48;;;;;;;8.63;5.77;;;13.90;99.90;;;;;;8449663;28;20281;-61
2022/03/27 11:35:10;;;;;;;8.73;5.63;;;14.00;42.90;;;;;;8424035;28;20215;-61
2022/03/27 11:39:13;;;;;;;7.73;5.17;;;14.20;1.00;;;;;;8429462;28;20299;-62
2022/03/27 11:43:34;;;;;;;8.53;5.57;;;14.30;1.00;;;;;;8426282;28;20207;-62
2022/03/27 11:47:38;;;;;;;6.43;5.70;;;14.50;1.00;;;;;;8415099;28;20321;-61
2022/03/27 11:51:38;;;;;;;6.30;5.00;;;14.60;1.00;;;;;;8426210;28;20305;-61
2022/03/27 11:55:39;;;;;;;8.50;5.60;;;14.80;1.00;;;;;;8410851;28;20264;-61
2022/03/27 11:59:49;;;;;;;7.03;5.27;;;14.90;1.00;;;;;;8407802;28;20369;-61
2022/03/27 12:03:57;;;;;;;9.87;5.60;;;15.00;1.00;;;;;;8418636;28;20200;-61
2022/03/27 12:07:58;;;;;;;7.73;5.70;;;15.00;1.00;;;;;;8440070;28;20671;-62
2022/03/27 12:12:12;;;;;;;9.33;6.20;;;15.10;1.00;;;;;;8442959;28;20220;-61
2022/03/27 12:16:17;;;;;;;6.93;6.10;;;15.10;1.00;;;;;;8408625;28;20200;-61
2022/03/27 12:20:17;;;;;;;7.47;5.77;;;15.00;1.00;;;;;;8432850;28;20211;-63
2022/03/27 12:24:18;;;;;;;8.73;6.10;;;14.60;1.00;;;;;;8433564;28;20200;-60
2022/03/27 12:32:40;;;;;;;8.50;6.23;;;14.80;1.00;;;;;;8423892;28;20470;-61
2022/03/27 12:37:16;;;;;;;8.27;5.20;;;15.00;1.00;;;;;;8431192;28;20212;-62
2022/03/27 12:41:38;;;;;;;6.87;5.63;;;15.30;1.00;;;;;;8416983;28;20205;-61
2022/03/27 12:45:40;;;;;;;8.97;5.83;;;15.40;1.00;;;;;;8413539;28;20211;-61
2022/03/27 12:49:49;;;;;;;7.20;5.40;;;15.10;1.00;;;;;;8408987;28;20276;-63
2022/03/27 12:54:07;;;;;;;10.03;5.93;;;14.80;1.00;;;;;;8431176;28;20293;-62
2022/03/27 12:58:08;;;;;;;8.07;5.40;;;14.80;1.00;;;;;;8423666;28;20200;-63
2022/03/27 13:02:30;;;;;;;7.03;5.17;;;14.80;1.00;;;;;;8433438;28;20247;-61
2022/03/27 13:06:43;;;;;;;8.17;5.97;;;15.00;1.00;;;;;;8407089;28;20341;-60
2022/03/27 13:10:56;;;;;;;7.80;5.43;;;15.20;1.00;;;;;;8417026;28;20275;-60
2022/03/27 13:14:57;;;;;;;5.27;4.70;;;15.30;1.00;;;;;;8411811;28;20200;-63
2022/03/27 13:19:06;;;;;;;5.63;4.30;;;15.40;1.00;;;;;;8419740;28;20250;-61
2022/03/27 13:23:08;;;;;;;6.83;5.00;;;15.50;1.00;;;;;;8421632;28;20282;-61
2022/03/27 13:27:09;;;;;;;8.37;4.97;;;15.70;1.00;;;;;;8401186;28;20575;-60
2022/03/27 13:31:11;;;;;;;5.43;4.50;;;15.90;1.00;;;;;;8415630;28;20219;-61
2022/03/27 13:35:12;;;;;;;6.97;4.80;;;15.90;1.00;;;;;;8415534;28;20212;-60
2022/03/27 13:39:14;;;;;;;6.53;4.57;;;15.90;1.00;;;;;;8406891;28;20283;-61
2022/03/27 13:43:15;;;;;;;6.30;4.40;;;15.90;1.00;;;;;;8404879;28;20215;-61
2022/03/27 13:47:17;;;;;;;6.83;4.60;;;15.90;1.00;;;;;;8427886;28;20247;-61
2022/03/27 13:51:18;;;;;;;6.70;4.70;;;16.00;1.00;;;;;;8406390;28;20219;-60
2022/03/27 13:55:19;;;;;;;11.17;6.17;;;15.90;1.00;;;;;;8417739;28;20216;-61
2022/03/27 13:59:20;;;;;;;5.50;4.17;;;15.50;1.00;;;;;;8407681;28;20246;-61
2022/03/27 14:03:21;;;;;;;8.33;4.90;;;15.50;1.00;;;;;;8424849;28;20444;-62
2022/03/27 14:07:22;;;;;;;7.07;4.67;;;15.60;1.00;;;;;;8431279;28;20254;-62
2022/03/27 14:11:23;;;;;;;6.10;4.00;;;15.80;1.00;;;;;;8430820;28;20199;-62
2022/03/27 14:15:24;;;;;;;6.07;4.57;;;15.90;1.00;;;;;;8417097;28;20298;-61
2022/03/27 14:19:25;;;;;;;5.10;4.23;;;16.00;1.00;;;;;;8415577;28;20298;-62
2022/03/27 14:23:26;;;;;;;5.87;4.33;;;16.10;1.00;;;;;;8419644;28;20200;-61
2022/03/27 14:27:27;;;;;;;9.17;4.97;;;16.20;1.00;;;;;;8404564;28;20228;-61
2022/03/27 14:31:28;;;;;;;6.60;5.37;;;16.20;1.00;;;;;;8406864;28;20335;-62
2022/03/27 14:35:29;;;;;;;6.23;4.57;;;16.20;1.00;;;;;;8409273;28;20250;-63
2022/03/27 14:39:30;;;;;;;6.20;4.90;;;16.20;1.00;;;;;;8411834;28;20218;-62
2022/03/27 14:43:31;;;;;;;6.73;5.10;;;16.20;1.00;;;;;;8421769;28;20283;-61
2022/03/27 14:47:34;;;;;;;6.70;4.77;;;16.20;1.00;;;;;;8427581;28;20234;-61
2022/03/27 14:51:35;;;;;;;6.77;4.73;;;16.10;1.00;;;;;;8446023;28;20200;-61
2022/03/27 14:59:56;;;;;;;9.17;5.30;;;16.10;1.00;;;;;;8428605;28;20238;-61
2022/03/27 15:03:56;;;;;;;7.73;5.00;;;16.10;1.00;;;;;;8402639;28;20196;-61
2022/03/27 15:07:57;;;;;;;6.83;5.33;;;16.00;1.00;;;;;;8422740;28;20224;-62
2022/03/27 15:12:00;;;;;;;5.87;4.67;;;16.10;1.00;;;;;;8452909;28;20199;-61
2022/03/27 15:16:01;;;;;;;7.07;5.17;;;16.00;1.00;;;;;;8410090;28;20215;-61
2022/03/27 15:20:03;;;;;;;6.80;4.77;;;16.00;1.00;;;;;;8410103;28;20204;-61
2022/03/27 15:24:05;;;;;;;8.37;5.93;;;16.00;1.00;;;;;;8436590;28;20203;-61
2022/03/27 15:28:06;;;;;;;6.97;4.77;;;16.00;1.00;;;;;;8414285;28;20221;-64
2022/03/27 15:32:08;;;;;;;5.73;4.30;;;16.00;1.00;;;;;;8418965;28;20298;-63
2022/03/27 15:36:08;;;;;;;4.70;4.00;;;16.00;1.00;;;;;;8430595;28;20341;-63
2022/03/27 15:40:11;;;;;;;5.83;4.13;;;16.00;1.00;;;;;;8428789;28;20204;-63
2022/03/27 15:44:18;;;;;;;6.33;4.87;;;15.90;1.00;;;;;;8439903;28;20266;-61
2022/03/27 15:48:19;;;;;;;9.17;4.43;;;15.80;1.00;;;;;;8433127;28;20334;-61
2022/03/27 15:52:20;;;;;;;5.43;4.47;;;15.80;1.00;;;;;;8425921;28;20200;-61
2022/03/27 15:56:21;;;;;;;5.57;4.00;;;15.70;1.00;;;;;;8431865;28;20207;-60
2022/03/27 16:00:22;;;;;;;6.53;4.60;;;15.60;1.00;;;;;;8408491;28;20228;-61
2022/03/27 16:04:22;;;;;;;5.17;4.57;;;15.50;1.00;;;;;;8400814;28;20223;-62
2022/03/27 16:08:25;;;;;;;5.20;4.20;;;15.40;1.00;;;;;;8425600;28;20276;-61
2022/03/27 16:12:26;;;;;;;4.97;4.20;;;15.30;1.00;;;;;;8440789;28;20215;-61
2022/03/27 16:16:28;;;;;;;5.73;3.97;;;15.20;1.00;;;;;;8416836;28;20208;-62
2022/03/27 16:20:29;;;;;;;5.27;3.87;;;15.10;1.00;;;;;;8409469;28;20248;-61
2022/03/27 16:24:30;;;;;;;4.53;3.67;;;15.00;1.00;;;;;;8415966;28;20199;-61
2022/03/27 16:28:30;;;;;;;5.00;3.60;;;14.80;1.00;;;;;;8426663;28;20228;-61
2022/03/27 16:32:32;;;;;;;4.00;3.07;;;14.70;1.00;;;;;;8422611;28;20203;-61
2022/03/27 16:36:32;;;;;;;6.13;3.53;;;14.50;1.00;;;;;;8416071;28;20221;-61
2022/03/27 16:40:37;;;;;;;5.40;3.50;;;14.30;1.00;;;;;;8403632;28;20203;-63
2022/03/27 16:44:38;;;;;;;4.30;2.90;;;14.20;16.50;;;;;;8419677;28;20208;-62
2022/03/27 16:48:39;;;;;;;3.60;2.90;;;14.00;70.10;;;;;;8428763;28;20340;-61
2022/03/27 16:52:40;;;;;;;3.77;2.80;;;13.70;99.90;;;;;;8444493;28;20388;-64
2022/03/27 16:56:41;;;;;;;4.60;3.47;;;13.40;99.90;;;;;;8410450;28;20197;-63
2022/03/27 17:00:43;;;;;;;5.77;4.00;;;13.00;99.90;;;;;;8424755;28;20220;-60
2022/03/27 17:04:44;;;;;;;6.17;4.43;;;12.80;99.90;;;;;;8420217;28;20235;-61
2022/03/27 17:08:46;;;;;;;9.13;5.27;;;12.60;99.90;;;;;;8441774;28;20220;-61
2022/03/27 17:12:46;;;;;;;5.83;3.50;;;12.30;99.90;;;;;;8426862;28;20196;-61
2022/03/27 17:16:47;;;;;;;4.10;3.20;;;12.00;99.90;;;;;;8420862;28;20199;-63
2022/03/27 17:20:48;;;;;;;4.20;3.47;;;11.60;99.90;;;;;;8419065;28;20303;-64
2022/03/27 17:24:50;;;;;;;4.93;3.10;;;11.30;1.00;;;;;;8430631;28;20228;-61
2022/03/27 17:28:51;;;;;;;10.47;3.33;;;10.90;1.00;;;;;;8436170;28;20222;-61
2022/03/27 17:32:51;;;;;;;4.37;2.97;;;10.50;38.20;;;;;;8416371;28;20237;-60
2022/03/27 17:36:59;;;;;;;4.67;2.80;;;10.10;99.90;;;;;;8414229;28;20204;-60
2022/03/27 17:41:00;;;;;;;3.67;2.67;;;9.80;99.90;;;;;;8404542;28;20197;-63
2022/03/27 17:45:01;;;;;;;6.27;4.00;;;9.50;99.90;;;;;;8427696;28;20239;-61
2022/03/27 17:49:02;;;;;;;6.13;4.27;;;9.30;1.00;;;;;;8417988;28;20220;-61
2022/03/27 17:53:03;;;;;;;5.53;3.93;;;9.00;5.10;;;;;;8428951;28;20200;-71
2022/03/27 17:57:07;;;;;;;5.10;3.77;;;8.80;99.90;;;;;;8404518;28;20295;-64
2022/03/27 18:01:08;;;;;;;5.20;4.57;;;8.50;99.90;;;;;;8404196;28;20669;-62
2022/03/27 18:05:09;;;;;;;5.30;3.77;;;8.30;99.90;;;;;;8421960;28;20215;-61
2022/03/27 18:09:10;;;;;;;5.57;3.83;;;8.10;1.00;;;;;;8421905;28;20295;-62
2022/03/27 18:13:11;;;;;;;4.67;3.60;;;7.90;1.00;;;;;;8425649;28;20340;-61
2022/03/27 18:17:15;;;;;;;5.83;3.67;;;7.70;99.90;;;;;;8418286;28;20215;-61
2022/03/27 18:21:16;;;;;;;5.97;4.00;;;7.60;99.90;;;;;;8423844;28;20276;-61
2022/03/27 18:25:17;;;;;;;11.80;6.17;;;7.30;1.00;;;;;;8404996;28;20295;-61
2022/03/27 18:29:18;;;;;;;81.77;30.80;;;7.20;1.00;;;;;;8417156;28;20219;-73
2022/03/27 18:33:19;;;;;;;53.90;23.50;;;7.00;99.90;;;;;;8427431;28;20204;-61
2022/03/27 18:37:20;;;;;;;24.83;11.43;;;6.80;99.90;;;;;;8436583;28;20229;-63
2022/03/27 18:41:21;;;;;;;19.10;8.77;;;6.60;99.90;;;;;;8413424;28;20203;-61
2022/03/27 18:45:23;;;;;;;12.13;5.83;;;6.40;1.00;;;;;;8438112;28;20210;-62
2022/03/27 18:49:24;;;;;;;8.57;4.47;;;6.30;1.00;;;;;;8410108;28;20220;-61
2022/03/27 18:53:25;;;;;;;5.63;3.80;;;6.10;3.00;;;;;;8431697;28;20212;-63
2022/03/27 18:57:26;;;;;;;7.47;5.37;;;5.90;99.90;;;;;;8425424;28;20210;-61
2022/03/27 19:01:30;;;;;;;8.37;4.93;;;5.80;99.90;;;;;;8408363;28;20212;-61
2022/03/27 19:05:35;;;;;;;11.33;7.03;;;5.70;1.00;;;;;;8409669;28;20210;-62
2022/03/27 19:09:37;;;;;;;10.57;6.10;;;5.60;99.90;;;;;;8427737;28;20219;-61
2022/03/27 19:13:38;;;;;;;8.77;5.57;;;5.50;99.90;;;;;;8427908;28;20248;-61
2022/03/27 19:17:53;;;;;;;7.73;4.63;;;5.30;99.90;;;;;;8419653;28;20215;-63
2022/03/27 19:21:56;;;;;;;6.17;4.73;;;5.10;99.90;;;;;;8409127;28;20208;-64
2022/03/27 19:25:57;;;;;;;6.47;4.43;;;5.00;1.00;;;;;;8410952;28;20206;-61
2022/03/27 19:29:58;;;;;;;8.47;5.10;;;4.80;15.50;;;;;;8414067;28;20297;-60
2022/03/27 19:33:59;;;;;;;8.80;5.97;;;4.60;99.90;;;;;;8422147;28;20207;-61
2022/03/27 19:38:00;;;;;;;8.77;6.20;;;4.50;99.90;;;;;;8416453;28;20210;-62
2022/03/27 19:42:01;;;;;;;11.97;7.20;;;4.40;1.00;;;;;;8404042;28;20201;-61
2022/03/27 19:46:02;;;;;;;10.70;6.63;;;4.30;99.90;;;;;;8434132;28;20199;-62
2022/03/27 19:50:05;;;;;;;11.03;6.43;;;4.20;1.00;;;;;;8418250;28;20218;-61
2022/03/27 19:54:07;;;;;;;8.07;5.60;;;4.10;99.90;;;;;;8430128;28;20200;-61
2022/03/27 19:58:07;;;;;;;8.73;5.53;;;4.00;1.00;;;;;;8406810;28;20199;-62
2022/03/27 20:02:09;;;;;;;8.90;6.43;;;3.90;89.80;;;;;;8400926;28;20242;-62
2022/03/27 20:06:09;;;;;;;9.97;7.07;;;3.80;1.00;;;;;;8410160;28;20209;-62
2022/03/27 20:10:12;;;;;;;11.63;6.90;;;3.70;1.00;;;;;;8430453;28;20209;-62
2022/03/27 20:14:13;;;;;;;9.13;5.87;;;3.60;99.90;;;;;;8439697;28;20215;-63
2022/03/27 20:18:14;;;;;;;9.80;5.73;;;3.50;99.90;;;;;;8424409;28;20288;-61
2022/03/27 20:22:15;;;;;;;8.57;5.20;;;3.50;99.90;;;;;;8415568;28;20230;-61
2022/03/27 20:26:17;;;;;;;10.40;6.13;;;3.40;1.00;;;;;;8445962;28;20204;-60
2022/03/27 20:30:21;;;;;;;8.67;5.50;;;3.40;1.00;;;;;;8421584;28;20238;-61
2022/03/27 20:34:25;;;;;;;8.90;6.00;;;3.30;1.00;;;;;;8429789;28;20193;-63
2022/03/27 20:38:25;;;;;;;8.90;5.07;;;3.10;1.00;;;;;;8411580;28;20208;-61
2022/03/27 20:42:26;;;;;;;9.97;5.60;;;3.00;54.30;;;;;;8424799;28;20206;-62
2022/03/27 20:46:27;;;;;;;10.40;6.03;;;2.90;99.90;;;;;;8411861;28;20212;-61
2022/03/27 20:50:28;;;;;;;11.60;7.10;;;2.80;99.90;;;;;;8407711;28;20356;-63
2022/03/27 20:54:29;;;;;;;10.53;6.17;;;2.70;99.90;;;;;;8430772;28;20208;-61
2022/03/27 20:58:30;;;;;;;10.43;6.53;;;2.70;99.90;;;;;;8410446;28;20219;-61
2022/03/27 21:02:31;;;;;;;12.23;7.47;;;2.60;1.00;;;;;;8397023;28;20222;-62
2022/03/27 21:06:31;;;;;;;12.83;7.17;;;2.50;1.00;;;;;;8416229;28;20216;-61
2022/03/27 21:10:33;;;;;;;13.70;6.43;;;2.40;1.00;;;;;;8415295;28;20263;-62
2022/03/27 21:14:33;;;;;;;11.27;7.13;;;2.30;1.00;;;;;;8426767;28;20208;-62